sensor_id;sensor_type;location;lat;lon;timestamp;P1;durP1;ratioP1;P2;durP2;ratioP2
16171;SDS011;8192;53.596;10.166;2024-03-02T00:00:39;51.87;;;41.03;;
16171;SDS011;8192;53.596;10.166;2024-03-02T00:03:06;54.97;;;41.23;;
16171;SDS011;8192;53.596;10.166;2024-03-02T00:05:34;60.40;;;42.60;;
16171;SDS011;8192;53.596;10.166;2024-03-02T00:08:03;56.10;;;40.60;;
16171;SDS011;8192;53.596;10.166;2024-03-02T00:10:34;58.40;;;43.07;;
16171;SDS011;8192;53.596;10.166;2024-03-02T00:13:04;59.13;;;43.13;;
16171;SDS011;8192;53.596;10.166;2024-03-02T00:15:41;62.17;;;43.30;;
16171;SDS011;8192;53.596;10.166;2024-03-02T00:18:12;62.93;;;43.70;;
16171;SDS011;8192;53.596;10.166;2024-03-02T00:20:40;64.57;;;44.00;;
16171;SDS011;8192;53.596;10.166;2024-03-02T00:23:10;63.73;;;44.43;;
16171;SDS011;8192;53.596;10.166;2024-03-02T00:25:41;65.63;;;44.07;;
16171;SDS011;8192;53.596;10.166;2024-03-02T00:28:13;65.00;;;44.30;;
16171;SDS011;8192;53.596;10.166;2024-03-02T00:30:50;61.93;;;45.70;;
16171;SDS011;8192;53.596;10.166;2024-03-02T00:33:20;60.63;;;43.67;;
16171;SDS011;8192;53.596;10.166;2024-03-02T00:35:48;61.43;;;45.03;;
16171;SDS011;8192;53.596;10.166;2024-03-02T00:38:17;65.70;;;43.93;;
16171;SDS011;8192;53.596;10.166;2024-03-02T00:40:44;61.47;;;44.37;;
16171;SDS011;8192;53.596;10.166;2024-03-02T00:46:17;64.77;;;44.83;;
16171;SDS011;8192;53.596;10.166;2024-03-02T00:48:48;65.93;;;45.77;;
16171;SDS011;8192;53.596;10.166;2024-03-02T00:51:20;63.63;;;46.47;;
16171;SDS011;8192;53.596;10.166;2024-03-02T00:53:49;68.17;;;45.87;;
16171;SDS011;8192;53.596;10.166;2024-03-02T00:56:16;62.77;;;45.77;;
16171;SDS011;8192;53.596;10.166;2024-03-02T00:58:43;67.70;;;44.90;;
16171;SDS011;8192;53.596;10.166;2024-03-02T01:01:10;60.37;;;44.73;;
16171;SDS011;8192;53.596;10.166;2024-03-02T01:03:37;68.23;;;46.33;;
16171;SDS011;8192;53.596;10.166;2024-03-02T01:06:04;69.63;;;46.40;;
16171;SDS011;8192;53.596;10.166;2024-03-02T01:08:33;70.43;;;46.00;;
16171;SDS011;8192;53.596;10.166;2024-03-02T01:11:02;64.27;;;44.57;;
16171;SDS011;8192;53.596;10.166;2024-03-02T01:13:30;68.13;;;46.37;;
16171;SDS011;8192;53.596;10.166;2024-03-02T01:15:57;70.60;;;46.30;;
16171;SDS011;8192;53.596;10.166;2024-03-02T01:18:24;63.67;;;44.37;;
16171;SDS011;8192;53.596;10.166;2024-03-02T01:20:51;62.80;;;45.30;;
16171;SDS011;8192;53.596;10.166;2024-03-02T01:23:20;65.13;;;45.90;;
16171;SDS011;8192;53.596;10.166;2024-03-02T01:25:48;62.33;;;45.70;;
16171;SDS011;8192;53.596;10.166;2024-03-02T01:28:16;71.40;;;47.30;;
16171;SDS011;8192;53.596;10.166;2024-03-02T01:30:43;70.10;;;47.80;;
16171;SDS011;8192;53.596;10.166;2024-03-02T01:33:10;67.90;;;47.27;;
16171;SDS011;8192;53.596;10.166;2024-03-02T01:35:37;75.57;;;48.17;;
16171;SDS011;8192;53.596;10.166;2024-03-02T01:38:04;64.07;;;45.33;;
16171;SDS011;8192;53.596;10.166;2024-03-02T01:40:32;72.10;;;46.37;;
16171;SDS011;8192;53.596;10.166;2024-03-02T01:43:00;64.70;;;46.63;;
16171;SDS011;8192;53.596;10.166;2024-03-02T01:45:29;65.40;;;46.30;;
16171;SDS011;8192;53.596;10.166;2024-03-02T01:47:55;63.57;;;44.93;;
16171;SDS011;8192;53.596;10.166;2024-03-02T01:50:26;71.40;;;45.97;;
16171;SDS011;8192;53.596;10.166;2024-03-02T01:52:54;65.00;;;46.07;;
16171;SDS011;8192;53.596;10.166;2024-03-02T01:55:22;64.03;;;46.53;;
16171;SDS011;8192;53.596;10.166;2024-03-02T01:57:49;70.37;;;47.87;;
16171;SDS011;8192;53.596;10.166;2024-03-02T02:00:17;69.27;;;47.43;;
16171;SDS011;8192;53.596;10.166;2024-03-02T02:02:45;71.93;;;47.17;;
16171;SDS011;8192;53.596;10.166;2024-03-02T02:05:13;71.23;;;47.93;;
16171;SDS011;8192;53.596;10.166;2024-03-02T02:07:40;71.80;;;46.03;;
16171;SDS011;8192;53.596;10.166;2024-03-02T02:10:08;74.30;;;48.13;;
16171;SDS011;8192;53.596;10.166;2024-03-02T02:12:35;73.53;;;49.60;;
16171;SDS011;8192;53.596;10.166;2024-03-02T02:15:03;71.47;;;46.70;;
16171;SDS011;8192;53.596;10.166;2024-03-02T02:17:30;71.77;;;48.87;;
16171;SDS011;8192;53.596;10.166;2024-03-02T02:19:59;72.43;;;47.27;;
16171;SDS011;8192;53.596;10.166;2024-03-02T02:22:27;72.70;;;47.43;;
16171;SDS011;8192;53.596;10.166;2024-03-02T02:24:54;64.53;;;46.93;;
16171;SDS011;8192;53.596;10.166;2024-03-02T02:27:21;75.10;;;47.87;;
16171;SDS011;8192;53.596;10.166;2024-03-02T02:29:48;70.43;;;46.73;;
16171;SDS011;8192;53.596;10.166;2024-03-02T02:32:15;70.10;;;46.73;;
16171;SDS011;8192;53.596;10.166;2024-03-02T02:34:42;70.57;;;48.03;;
16171;SDS011;8192;53.596;10.166;2024-03-02T02:37:09;71.60;;;48.47;;
16171;SDS011;8192;53.596;10.166;2024-03-02T02:39:36;73.50;;;47.47;;
16171;SDS011;8192;53.596;10.166;2024-03-02T02:42:04;68.53;;;47.03;;
16171;SDS011;8192;53.596;10.166;2024-03-02T02:44:32;70.63;;;46.33;;
16171;SDS011;8192;53.596;10.166;2024-03-02T02:46:59;70.53;;;48.30;;
16171;SDS011;8192;53.596;10.166;2024-03-02T02:49:26;69.97;;;46.30;;
16171;SDS011;8192;53.596;10.166;2024-03-02T02:51:52;77.20;;;48.93;;
16171;SDS011;8192;53.596;10.166;2024-03-02T02:54:19;64.20;;;46.00;;
16171;SDS011;8192;53.596;10.166;2024-03-02T02:56:48;63.50;;;44.93;;
16171;SDS011;8192;53.596;10.166;2024-03-02T02:59:15;75.90;;;48.57;;
16171;SDS011;8192;53.596;10.166;2024-03-02T03:01:42;71.33;;;48.03;;
16171;SDS011;8192;53.596;10.166;2024-03-02T03:04:09;69.57;;;48.17;;
16171;SDS011;8192;53.596;10.166;2024-03-02T03:06:36;68.77;;;47.67;;
16171;SDS011;8192;53.596;10.166;2024-03-02T03:09:03;69.67;;;47.73;;
16171;SDS011;8192;53.596;10.166;2024-03-02T03:11:29;69.03;;;47.77;;
16171;SDS011;8192;53.596;10.166;2024-03-02T03:13:58;69.00;;;47.73;;
16171;SDS011;8192;53.596;10.166;2024-03-02T03:16:26;73.57;;;49.17;;
16171;SDS011;8192;53.596;10.166;2024-03-02T03:18:53;76.00;;;49.50;;
16171;SDS011;8192;53.596;10.166;2024-03-02T03:21:20;73.77;;;49.83;;
16171;SDS011;8192;53.596;10.166;2024-03-02T03:23:47;72.07;;;48.07;;
16171;SDS011;8192;53.596;10.166;2024-03-02T03:26:14;73.97;;;48.87;;
16171;SDS011;8192;53.596;10.166;2024-03-02T03:28:40;76.93;;;48.57;;
16171;SDS011;8192;53.596;10.166;2024-03-02T03:31:09;73.90;;;48.00;;
16171;SDS011;8192;53.596;10.166;2024-03-02T03:33:36;70.43;;;48.80;;
16171;SDS011;8192;53.596;10.166;2024-03-02T03:36:03;72.97;;;49.23;;
16171;SDS011;8192;53.596;10.166;2024-03-02T03:38:30;64.93;;;46.17;;
16171;SDS011;8192;53.596;10.166;2024-03-02T03:40:57;70.30;;;47.87;;
16171;SDS011;8192;53.596;10.166;2024-03-02T03:43:24;69.57;;;46.30;;
16171;SDS011;8192;53.596;10.166;2024-03-02T03:45:51;74.97;;;46.93;;
16171;SDS011;8192;53.596;10.166;2024-03-02T03:48:19;65.03;;;46.57;;
16171;SDS011;8192;53.596;10.166;2024-03-02T03:50:46;72.23;;;47.97;;
16171;SDS011;8192;53.596;10.166;2024-03-02T03:53:13;70.30;;;46.70;;
16171;SDS011;8192;53.596;10.166;2024-03-02T03:55:40;63.30;;;45.43;;
16171;SDS011;8192;53.596;10.166;2024-03-02T03:58:07;65.13;;;44.80;;
16171;SDS011;8192;53.596;10.166;2024-03-02T04:00:34;65.00;;;46.23;;
16171;SDS011;8192;53.596;10.166;2024-03-02T04:03:01;67.13;;;47.07;;
16171;SDS011;8192;53.596;10.166;2024-03-02T04:05:30;67.43;;;46.83;;
16171;SDS011;8192;53.596;10.166;2024-03-02T04:08:00;61.97;;;44.87;;
16171;SDS011;8192;53.596;10.166;2024-03-02T04:10:27;63.10;;;45.50;;
16171;SDS011;8192;53.596;10.166;2024-03-02T04:12:55;65.53;;;45.40;;
16171;SDS011;8192;53.596;10.166;2024-03-02T04:15:22;63.13;;;45.73;;
16171;SDS011;8192;53.596;10.166;2024-03-02T04:17:49;64.23;;;45.77;;
16171;SDS011;8192;53.596;10.166;2024-03-02T04:20:15;65.20;;;44.97;;
16171;SDS011;8192;53.596;10.166;2024-03-02T04:22:44;58.33;;;43.50;;
16171;SDS011;8192;53.596;10.166;2024-03-02T04:25:11;59.20;;;43.27;;
16171;SDS011;8192;53.596;10.166;2024-03-02T04:27:37;59.87;;;45.40;;
16171;SDS011;8192;53.596;10.166;2024-03-02T04:30:05;64.20;;;45.63;;
16171;SDS011;8192;53.596;10.166;2024-03-02T04:32:32;59.90;;;43.57;;
16171;SDS011;8192;53.596;10.166;2024-03-02T04:34:58;60.83;;;44.13;;
16171;SDS011;8192;53.596;10.166;2024-03-02T04:37:25;61.40;;;44.63;;
16171;SDS011;8192;53.596;10.166;2024-03-02T04:39:53;64.57;;;46.67;;
16171;SDS011;8192;53.596;10.166;2024-03-02T04:42:20;66.53;;;45.47;;
16171;SDS011;8192;53.596;10.166;2024-03-02T04:44:47;68.67;;;45.43;;
16171;SDS011;8192;53.596;10.166;2024-03-02T04:47:14;59.50;;;44.87;;
16171;SDS011;8192;53.596;10.166;2024-03-02T04:49:41;60.60;;;43.57;;
16171;SDS011;8192;53.596;10.166;2024-03-02T04:52:08;60.70;;;44.87;;
16171;SDS011;8192;53.596;10.166;2024-03-02T04:54:35;64.80;;;45.50;;
16171;SDS011;8192;53.596;10.166;2024-03-02T04:57:24;59.23;;;43.77;;
16171;SDS011;8192;53.596;10.166;2024-03-02T04:59:50;59.37;;;44.23;;
16171;SDS011;8192;53.596;10.166;2024-03-02T05:02:17;58.47;;;43.70;;
16171;SDS011;8192;53.596;10.166;2024-03-02T05:04:44;57.47;;;43.53;;
16171;SDS011;8192;53.596;10.166;2024-03-02T05:07:13;62.27;;;46.07;;
16171;SDS011;8192;53.596;10.166;2024-03-02T05:09:40;59.47;;;44.90;;
16171;SDS011;8192;53.596;10.166;2024-03-02T05:12:07;61.57;;;44.97;;
16171;SDS011;8192;53.596;10.166;2024-03-02T05:15:07;61.20;;;44.27;;
16171;SDS011;8192;53.596;10.166;2024-03-02T05:17:35;59.27;;;43.50;;
16171;SDS011;8192;53.596;10.166;2024-03-02T05:20:02;59.70;;;43.60;;
16171;SDS011;8192;53.596;10.166;2024-03-02T05:22:30;63.80;;;44.13;;
16171;SDS011;8192;53.596;10.166;2024-03-02T05:24:58;55.43;;;41.73;;
16171;SDS011;8192;53.596;10.166;2024-03-02T05:27:25;59.00;;;43.33;;
16171;SDS011;8192;53.596;10.166;2024-03-02T05:29:52;63.43;;;44.17;;
16171;SDS011;8192;53.596;10.166;2024-03-02T05:32:21;60.33;;;43.57;;
16171;SDS011;8192;53.596;10.166;2024-03-02T05:34:48;59.20;;;43.83;;
16171;SDS011;8192;53.596;10.166;2024-03-02T05:37:15;64.73;;;44.87;;
16171;SDS011;8192;53.596;10.166;2024-03-02T05:39:42;61.50;;;43.90;;
16171;SDS011;8192;53.596;10.166;2024-03-02T05:42:09;60.40;;;44.23;;
16171;SDS011;8192;53.596;10.166;2024-03-02T05:44:36;59.17;;;43.60;;
16171;SDS011;8192;53.596;10.166;2024-03-02T05:47:03;59.73;;;45.53;;
16171;SDS011;8192;53.596;10.166;2024-03-02T05:49:35;58.07;;;43.47;;
16171;SDS011;8192;53.596;10.166;2024-03-02T05:52:02;58.23;;;43.47;;
16171;SDS011;8192;53.596;10.166;2024-03-02T05:54:29;58.67;;;43.70;;
16171;SDS011;8192;53.596;10.166;2024-03-02T05:56:56;62.73;;;44.80;;
16171;SDS011;8192;53.596;10.166;2024-03-02T05:59:41;57.83;;;43.70;;
16171;SDS011;8192;53.596;10.166;2024-03-02T06:02:08;63.03;;;44.93;;
16171;SDS011;8192;53.596;10.166;2024-03-02T06:04:37;59.63;;;44.33;;
16171;SDS011;8192;53.596;10.166;2024-03-02T06:07:03;61.80;;;43.07;;
16171;SDS011;8192;53.596;10.166;2024-03-02T06:09:30;57.33;;;41.73;;
16171;SDS011;8192;53.596;10.166;2024-03-02T06:11:57;58.20;;;41.83;;
16171;SDS011;8192;53.596;10.166;2024-03-02T06:14:24;60.63;;;43.57;;
16171;SDS011;8192;53.596;10.166;2024-03-02T06:16:51;60.63;;;44.17;;
16171;SDS011;8192;53.596;10.166;2024-03-02T06:19:18;60.33;;;43.83;;
16171;SDS011;8192;53.596;10.166;2024-03-02T06:21:46;59.03;;;44.60;;
16171;SDS011;8192;53.596;10.166;2024-03-02T06:24:13;61.30;;;44.20;;
16171;SDS011;8192;53.596;10.166;2024-03-02T06:26:40;64.20;;;43.83;;
16171;SDS011;8192;53.596;10.166;2024-03-02T06:29:07;62.37;;;45.07;;
16171;SDS011;8192;53.596;10.166;2024-03-02T06:31:34;59.43;;;44.53;;
16171;SDS011;8192;53.596;10.166;2024-03-02T06:34:00;62.37;;;45.70;;
16171;SDS011;8192;53.596;10.166;2024-03-02T06:36:28;57.80;;;42.50;;
16171;SDS011;8192;53.596;10.166;2024-03-02T06:38:56;57.63;;;42.83;;
16171;SDS011;8192;53.596;10.166;2024-03-02T06:41:23;64.60;;;44.23;;
16171;SDS011;8192;53.596;10.166;2024-03-02T06:43:51;58.03;;;42.80;;
16171;SDS011;8192;53.596;10.166;2024-03-02T06:46:24;59.27;;;42.73;;
16171;SDS011;8192;53.596;10.166;2024-03-02T06:48:51;61.93;;;45.07;;
16171;SDS011;8192;53.596;10.166;2024-03-02T06:51:18;64.10;;;45.87;;
16171;SDS011;8192;53.596;10.166;2024-03-02T06:53:45;66.23;;;46.03;;
16171;SDS011;8192;53.596;10.166;2024-03-02T06:56:13;60.63;;;42.63;;
16171;SDS011;8192;53.596;10.166;2024-03-02T06:58:42;65.67;;;45.43;;
16171;SDS011;8192;53.596;10.166;2024-03-02T07:01:09;59.07;;;43.57;;
16171;SDS011;8192;53.596;10.166;2024-03-02T07:03:36;61.33;;;43.23;;
16171;SDS011;8192;53.596;10.166;2024-03-02T07:06:05;59.67;;;43.83;;
16171;SDS011;8192;53.596;10.166;2024-03-02T07:08:32;64.90;;;44.17;;
16171;SDS011;8192;53.596;10.166;2024-03-02T07:11:00;59.50;;;43.40;;
16171;SDS011;8192;53.596;10.166;2024-03-02T07:13:28;64.17;;;44.43;;
16171;SDS011;8192;53.596;10.166;2024-03-02T07:15:55;57.17;;;43.53;;
16171;SDS011;8192;53.596;10.166;2024-03-02T07:18:47;58.47;;;43.90;;
16171;SDS011;8192;53.596;10.166;2024-03-02T07:21:16;55.87;;;43.30;;
16171;SDS011;8192;53.596;10.166;2024-03-02T07:23:44;59.50;;;43.60;;
16171;SDS011;8192;53.596;10.166;2024-03-02T07:26:11;54.00;;;42.97;;
16171;SDS011;8192;53.596;10.166;2024-03-02T07:28:41;55.60;;;42.70;;
16171;SDS011;8192;53.596;10.166;2024-03-02T07:31:09;58.63;;;42.13;;
16171;SDS011;8192;53.596;10.166;2024-03-02T07:33:36;58.17;;;43.30;;
16171;SDS011;8192;53.596;10.166;2024-03-02T07:36:03;55.13;;;42.20;;
16171;SDS011;8192;53.596;10.166;2024-03-02T07:38:31;56.50;;;42.30;;
16171;SDS011;8192;53.596;10.166;2024-03-02T07:40:59;54.33;;;42.20;;
16171;SDS011;8192;53.596;10.166;2024-03-02T07:43:26;54.20;;;41.80;;
16171;SDS011;8192;53.596;10.166;2024-03-02T07:45:55;52.60;;;40.60;;
16171;SDS011;8192;53.596;10.166;2024-03-02T07:48:22;55.07;;;42.07;;
16171;SDS011;8192;53.596;10.166;2024-03-02T07:50:50;56.33;;;41.77;;
16171;SDS011;8192;53.596;10.166;2024-03-02T07:53:18;55.57;;;42.77;;
16171;SDS011;8192;53.596;10.166;2024-03-02T07:55:45;47.53;;;39.20;;
16171;SDS011;8192;53.596;10.166;2024-03-02T07:58:12;49.50;;;39.13;;
16171;SDS011;8192;53.596;10.166;2024-03-02T08:00:39;51.27;;;40.53;;
16171;SDS011;8192;53.596;10.166;2024-03-02T08:03:08;55.87;;;41.37;;
16171;SDS011;8192;53.596;10.166;2024-03-02T08:05:36;49.70;;;39.70;;
16171;SDS011;8192;53.596;10.166;2024-03-02T08:08:04;48.23;;;41.10;;
16171;SDS011;8192;53.596;10.166;2024-03-02T08:10:31;48.60;;;40.17;;
16171;SDS011;8192;53.596;10.166;2024-03-02T08:12:58;50.73;;;40.07;;
16171;SDS011;8192;53.596;10.166;2024-03-02T08:15:25;45.10;;;39.20;;
16171;SDS011;8192;53.596;10.166;2024-03-02T08:17:52;47.93;;;38.90;;
16171;SDS011;8192;53.596;10.166;2024-03-02T08:20:21;50.33;;;39.83;;
16171;SDS011;8192;53.596;10.166;2024-03-02T08:22:48;48.70;;;38.57;;
16171;SDS011;8192;53.596;10.166;2024-03-02T08:25:15;45.90;;;38.23;;
16171;SDS011;8192;53.596;10.166;2024-03-02T08:27:42;46.37;;;38.23;;
16171;SDS011;8192;53.596;10.166;2024-03-02T08:30:09;44.67;;;36.97;;
16171;SDS011;8192;53.596;10.166;2024-03-02T08:32:37;44.90;;;37.47;;
16171;SDS011;8192;53.596;10.166;2024-03-02T08:35:06;44.30;;;36.37;;
16171;SDS011;8192;53.596;10.166;2024-03-02T08:40:08;45.10;;;36.97;;
16171;SDS011;8192;53.596;10.166;2024-03-02T08:42:35;40.97;;;36.37;;
16171;SDS011;8192;53.596;10.166;2024-03-02T08:45:03;44.13;;;36.03;;
16171;SDS011;8192;53.596;10.166;2024-03-02T08:47:31;40.30;;;35.90;;
16171;SDS011;8192;53.596;10.166;2024-03-02T08:49:58;42.03;;;36.57;;
16171;SDS011;8192;53.596;10.166;2024-03-02T08:52:26;38.97;;;34.88;;
16171;SDS011;8192;53.596;10.166;2024-03-02T08:54:55;42.00;;;35.50;;
16171;SDS011;8192;53.596;10.166;2024-03-02T08:57:22;38.67;;;34.42;;
16171;SDS011;8192;53.596;10.166;2024-03-02T08:59:49;42.37;;;35.87;;
16171;SDS011;8192;53.596;10.166;2024-03-02T09:02:18;40.53;;;35.20;;
16171;SDS011;8192;53.596;10.166;2024-03-02T09:04:45;39.95;;;35.58;;
16171;SDS011;8192;53.596;10.166;2024-03-02T09:07:12;39.60;;;35.00;;
16171;SDS011;8192;53.596;10.166;2024-03-02T09:09:39;38.58;;;33.63;;
16171;SDS011;8192;53.596;10.166;2024-03-02T09:12:08;45.13;;;36.40;;
16171;SDS011;8192;53.596;10.166;2024-03-02T09:14:36;43.25;;;35.38;;
16171;SDS011;8192;53.596;10.166;2024-03-02T09:17:03;41.10;;;35.53;;
16171;SDS011;8192;53.596;10.166;2024-03-02T09:19:30;39.78;;;35.13;;
16171;SDS011;8192;53.596;10.166;2024-03-02T09:21:57;41.33;;;35.13;;
16171;SDS011;8192;53.596;10.166;2024-03-02T09:24:24;39.88;;;35.58;;
16171;SDS011;8192;53.596;10.166;2024-03-02T09:26:51;41.60;;;35.08;;
16171;SDS011;8192;53.596;10.166;2024-03-02T09:29:20;39.93;;;34.83;;
16171;SDS011;8192;53.596;10.166;2024-03-02T09:31:47;38.85;;;34.65;;
16171;SDS011;8192;53.596;10.166;2024-03-02T09:34:14;38.57;;;34.37;;
16171;SDS011;8192;53.596;10.166;2024-03-02T09:36:41;39.10;;;34.57;;
16171;SDS011;8192;53.596;10.166;2024-03-02T09:39:08;38.10;;;34.00;;
16171;SDS011;8192;53.596;10.166;2024-03-02T09:41:35;41.88;;;35.42;;
16171;SDS011;8192;53.596;10.166;2024-03-02T09:44:03;38.50;;;34.45;;
16171;SDS011;8192;53.596;10.166;2024-03-02T09:46:32;41.00;;;35.88;;
16171;SDS011;8192;53.596;10.166;2024-03-02T09:49:01;38.85;;;34.22;;
16171;SDS011;8192;53.596;10.166;2024-03-02T09:51:28;40.20;;;34.78;;
16171;SDS011;8192;53.596;10.166;2024-03-02T09:53:55;42.33;;;35.85;;
16171;SDS011;8192;53.596;10.166;2024-03-02T09:56:22;38.38;;;34.25;;
16171;SDS011;8192;53.596;10.166;2024-03-02T09:58:49;39.30;;;35.00;;
16171;SDS011;8192;53.596;10.166;2024-03-02T10:01:16;39.10;;;34.90;;
16171;SDS011;8192;53.596;10.166;2024-03-02T10:03:45;41.80;;;33.80;;
16171;SDS011;8192;53.596;10.166;2024-03-02T10:06:18;37.50;;;33.40;;
16171;SDS011;8192;53.596;10.166;2024-03-02T10:08:46;40.00;;;35.20;;
16171;SDS011;8192;53.596;10.166;2024-03-02T10:11:25;43.90;;;34.53;;
16171;SDS011;8192;53.596;10.166;2024-03-02T10:14:06;36.80;;;32.15;;
16171;SDS011;8192;53.596;10.166;2024-03-02T10:16:35;36.67;;;32.67;;
16171;SDS011;8192;53.596;10.166;2024-03-02T10:21:51;36.42;;;32.53;;
16171;SDS011;8192;53.596;10.166;2024-03-02T10:24:20;37.75;;;32.33;;
16171;SDS011;8192;53.596;10.166;2024-03-02T10:26:48;37.58;;;33.47;;
16171;SDS011;8192;53.596;10.166;2024-03-02T10:29:15;35.75;;;32.15;;
16171;SDS011;8192;53.596;10.166;2024-03-02T10:31:45;33.88;;;30.38;;
16171;SDS011;8192;53.596;10.166;2024-03-02T10:34:13;33.20;;;29.95;;
16171;SDS011;8192;53.596;10.166;2024-03-02T10:36:43;34.15;;;30.63;;
16171;SDS011;8192;53.596;10.166;2024-03-02T10:39:11;34.17;;;30.65;;
16171;SDS011;8192;53.596;10.166;2024-03-02T10:41:39;33.83;;;30.48;;
16171;SDS011;8192;53.596;10.166;2024-03-02T10:44:07;33.78;;;30.38;;
16171;SDS011;8192;53.596;10.166;2024-03-02T10:46:36;33.42;;;30.02;;
16171;SDS011;8192;53.596;10.166;2024-03-02T10:49:04;34.13;;;30.60;;
16171;SDS011;8192;53.596;10.166;2024-03-02T10:51:32;34.30;;;30.42;;
16171;SDS011;8192;53.596;10.166;2024-03-02T10:54:02;34.03;;;30.65;;
16171;SDS011;8192;53.596;10.166;2024-03-02T10:56:31;33.90;;;30.42;;
16171;SDS011;8192;53.596;10.166;2024-03-02T10:59:01;33.00;;;29.58;;
16171;SDS011;8192;53.596;10.166;2024-03-02T11:01:29;33.03;;;29.77;;
16171;SDS011;8192;53.596;10.166;2024-03-02T11:03:59;31.83;;;28.63;;
16171;SDS011;8192;53.596;10.166;2024-03-02T11:06:28;32.30;;;29.05;;
16171;SDS011;8192;53.596;10.166;2024-03-02T11:08:58;33.00;;;29.75;;
16171;SDS011;8192;53.596;10.166;2024-03-02T11:11:32;34.30;;;30.70;;
16171;SDS011;8192;53.596;10.166;2024-03-02T11:14:04;34.25;;;30.83;;
16171;SDS011;8192;53.596;10.166;2024-03-02T11:16:34;34.53;;;31.02;;
16171;SDS011;8192;53.596;10.166;2024-03-02T11:19:04;34.83;;;31.25;;
16171;SDS011;8192;53.596;10.166;2024-03-02T11:21:32;34.30;;;30.85;;
16171;SDS011;8192;53.596;10.166;2024-03-02T11:23:59;32.63;;;29.42;;
16171;SDS011;8192;53.596;10.166;2024-03-02T11:26:28;33.53;;;30.20;;
16171;SDS011;8192;53.596;10.166;2024-03-02T11:28:56;32.80;;;29.48;;
16171;SDS011;8192;53.596;10.166;2024-03-02T11:34:28;33.25;;;30.25;;
16171;SDS011;8192;53.596;10.166;2024-03-02T11:36:56;32.97;;;29.75;;
16171;SDS011;8192;53.596;10.166;2024-03-02T11:39:24;32.08;;;28.98;;
16171;SDS011;8192;53.596;10.166;2024-03-02T11:41:51;31.90;;;28.90;;
16171;SDS011;8192;53.596;10.166;2024-03-02T11:44:20;31.73;;;28.58;;
16171;SDS011;8192;53.596;10.166;2024-03-02T11:46:51;32.90;;;29.55;;
16171;SDS011;8192;53.596;10.166;2024-03-02T11:49:20;33.45;;;30.05;;
16171;SDS011;8192;53.596;10.166;2024-03-02T11:52:11;32.22;;;29.10;;
16171;SDS011;8192;53.596;10.166;2024-03-02T11:54:40;31.50;;;28.52;;
16171;SDS011;8192;53.596;10.166;2024-03-02T11:57:12;32.35;;;29.30;;
16171;SDS011;8192;53.596;10.166;2024-03-02T11:59:42;31.30;;;28.33;;
16171;SDS011;8192;53.596;10.166;2024-03-02T12:02:14;32.40;;;28.95;;
16171;SDS011;8192;53.596;10.166;2024-03-02T12:04:44;32.50;;;29.33;;
16171;SDS011;8192;53.596;10.166;2024-03-02T12:07:13;31.33;;;28.42;;
16171;SDS011;8192;53.596;10.166;2024-03-02T12:09:45;32.78;;;29.27;;
16171;SDS011;8192;53.596;10.166;2024-03-02T12:12:12;31.25;;;28.13;;
16171;SDS011;8192;53.596;10.166;2024-03-02T12:14:50;30.85;;;27.95;;
16171;SDS011;8192;53.596;10.166;2024-03-02T12:17:21;32.35;;;29.15;;
16171;SDS011;8192;53.596;10.166;2024-03-02T12:19:48;32.10;;;28.90;;
16171;SDS011;8192;53.596;10.166;2024-03-02T12:22:15;31.60;;;28.40;;
16171;SDS011;8192;53.596;10.166;2024-03-02T12:24:43;31.15;;;28.15;;
16171;SDS011;8192;53.596;10.166;2024-03-02T12:27:11;32.35;;;29.00;;
16171;SDS011;8192;53.596;10.166;2024-03-02T12:29:39;31.67;;;28.58;;
16171;SDS011;8192;53.596;10.166;2024-03-02T12:32:07;32.58;;;29.35;;
16171;SDS011;8192;53.596;10.166;2024-03-02T12:34:34;31.73;;;28.52;;
16171;SDS011;8192;53.596;10.166;2024-03-02T12:37:01;31.05;;;28.17;;
16171;SDS011;8192;53.596;10.166;2024-03-02T12:39:28;31.65;;;28.45;;
16171;SDS011;8192;53.596;10.166;2024-03-02T12:41:57;32.08;;;28.80;;
16171;SDS011;8192;53.596;10.166;2024-03-02T12:44:24;31.75;;;28.70;;
16171;SDS011;8192;53.596;10.166;2024-03-02T12:46:51;33.20;;;30.02;;
16171;SDS011;8192;53.596;10.166;2024-03-02T12:49:21;31.88;;;28.67;;
16171;SDS011;8192;53.596;10.166;2024-03-02T12:51:49;31.63;;;28.52;;
16171;SDS011;8192;53.596;10.166;2024-03-02T12:54:18;30.85;;;27.90;;
16171;SDS011;8192;53.596;10.166;2024-03-02T12:56:48;30.70;;;27.88;;
16171;SDS011;8192;53.596;10.166;2024-03-02T12:59:17;30.38;;;27.65;;
16171;SDS011;8192;53.596;10.166;2024-03-02T13:01:52;31.10;;;28.23;;
16171;SDS011;8192;53.596;10.166;2024-03-02T13:04:23;34.80;;;27.80;;
16171;SDS011;8192;53.596;10.166;2024-03-02T13:06:51;31.17;;;28.17;;
16171;SDS011;8192;53.596;10.166;2024-03-02T13:09:18;31.42;;;28.25;;
16171;SDS011;8192;53.596;10.166;2024-03-02T13:11:47;31.17;;;28.05;;
16171;SDS011;8192;53.596;10.166;2024-03-02T13:14:14;30.52;;;27.73;;
16171;SDS011;8192;53.596;10.166;2024-03-02T13:16:41;31.27;;;28.23;;
16171;SDS011;8192;53.596;10.166;2024-03-02T13:19:08;31.50;;;28.60;;
16171;SDS011;8192;53.596;10.166;2024-03-02T13:21:38;31.63;;;28.73;;
16171;SDS011;8192;53.596;10.166;2024-03-02T13:24:07;31.67;;;28.67;;
16171;SDS011;8192;53.596;10.166;2024-03-02T13:26:33;31.08;;;28.08;;
16171;SDS011;8192;53.596;10.166;2024-03-02T13:29:01;30.40;;;27.52;;
16171;SDS011;8192;53.596;10.166;2024-03-02T13:31:28;30.65;;;27.75;;
16171;SDS011;8192;53.596;10.166;2024-03-02T13:33:54;29.45;;;26.75;;
16171;SDS011;8192;53.596;10.166;2024-03-02T13:36:21;31.13;;;27.92;;
16171;SDS011;8192;53.596;10.166;2024-03-02T13:38:50;29.83;;;27.13;;
16171;SDS011;8192;53.596;10.166;2024-03-02T13:41:17;29.52;;;26.83;;
16171;SDS011;8192;53.596;10.166;2024-03-02T13:43:45;30.08;;;27.33;;
16171;SDS011;8192;53.596;10.166;2024-03-02T13:46:13;30.92;;;28.02;;
16171;SDS011;8192;53.596;10.166;2024-03-02T13:48:40;30.38;;;27.60;;
16171;SDS011;8192;53.596;10.166;2024-03-02T13:51:07;30.08;;;27.20;;
16171;SDS011;8192;53.596;10.166;2024-03-02T13:53:34;29.98;;;27.13;;
16171;SDS011;8192;53.596;10.166;2024-03-02T13:56:03;30.27;;;27.15;;
16171;SDS011;8192;53.596;10.166;2024-03-02T13:58:31;29.80;;;27.10;;
16171;SDS011;8192;53.596;10.166;2024-03-02T14:00:58;29.55;;;26.75;;
16171;SDS011;8192;53.596;10.166;2024-03-02T14:03:26;30.55;;;27.70;;
16171;SDS011;8192;53.596;10.166;2024-03-02T14:05:55;29.90;;;27.15;;
16171;SDS011;8192;53.596;10.166;2024-03-02T14:08:23;29.85;;;26.75;;
16171;SDS011;8192;53.596;10.166;2024-03-02T14:10:50;31.55;;;28.35;;
16171;SDS011;8192;53.596;10.166;2024-03-02T14:13:18;29.80;;;27.10;;
16171;SDS011;8192;53.596;10.166;2024-03-02T14:15:45;29.20;;;26.60;;
16171;SDS011;8192;53.596;10.166;2024-03-02T14:18:12;29.23;;;26.58;;
16171;SDS011;8192;53.596;10.166;2024-03-02T14:20:38;31.48;;;28.58;;
16171;SDS011;8192;53.596;10.166;2024-03-02T14:23:07;30.73;;;27.58;;
16171;SDS011;8192;53.596;10.166;2024-03-02T14:25:35;29.85;;;27.25;;
16171;SDS011;8192;53.596;10.166;2024-03-02T14:28:02;30.60;;;27.67;;
16171;SDS011;8192;53.596;10.166;2024-03-02T14:30:30;30.98;;;28.08;;
16171;SDS011;8192;53.596;10.166;2024-03-02T14:32:59;30.40;;;27.67;;
16171;SDS011;8192;53.596;10.166;2024-03-02T14:35:26;30.33;;;27.48;;
16171;SDS011;8192;53.596;10.166;2024-03-02T14:37:53;30.58;;;27.67;;